createdAt,value
2022-12-18T00:02:12.996Z,63.93
2022-12-18T00:04:39.559Z,63.08
2022-12-18T00:07:06.029Z,63.09
2022-12-18T00:09:40.269Z,62.72
2022-12-18T00:14:42.821Z,63.35
2022-12-18T00:17:09.279Z,63.56
2022-12-18T00:19:36.022Z,63.20
2022-12-18T00:22:02.899Z,63.02
2022-12-18T00:24:29.344Z,63.13
2022-12-18T00:26:55.834Z,62.52
2022-12-18T00:29:22.246Z,62.89
2022-12-18T00:31:48.759Z,63.62
2022-12-18T00:34:15.390Z,64.56
2022-12-18T00:36:42.430Z,64.78
2022-12-18T00:39:10.661Z,64.15
2022-12-18T00:41:55.840Z,64.00
2022-12-18T00:44:22.402Z,63.73
2022-12-18T00:46:49.372Z,63.19
2022-12-18T00:49:18.779Z,63.34
2022-12-18T00:51:46.355Z,63.40
2022-12-18T00:54:12.832Z,63.52
2022-12-18T00:56:48.181Z,63.42
2022-12-18T00:59:16.168Z,63.22
2022-12-18T01:01:43.630Z,63.28
2022-12-18T01:04:10.523Z,63.08
2022-12-18T01:06:37.106Z,63.34
2022-12-18T01:09:04.347Z,63.23
2022-12-18T01:11:31.088Z,63.29
2022-12-18T01:14:00.550Z,63.54
2022-12-18T01:16:27.093Z,63.43
2022-12-18T01:18:55.639Z,63.68
2022-12-18T01:21:23.671Z,63.37
2022-12-18T01:23:54.967Z,63.39
2022-12-18T01:26:21.675Z,63.04
2022-12-18T01:28:48.588Z,62.93
2022-12-18T01:31:27.724Z,63.13
2022-12-18T01:33:54.910Z,63.42
2022-12-18T01:36:24.585Z,63.12
2022-12-18T01:38:51.942Z,63.13
2022-12-18T01:41:21.376Z,63.49
2022-12-18T01:43:58.328Z,63.36
2022-12-18T01:46:25.688Z,63.28
2022-12-18T01:48:57.512Z,62.83
2022-12-18T01:51:25.534Z,62.91
2022-12-18T01:53:52.176Z,62.71
2022-12-18T01:56:21.350Z,62.61
2022-12-18T01:59:02.144Z,62.56
2022-12-18T02:01:31.590Z,63.02
2022-12-18T02:04:25.589Z,62.54
2022-12-18T02:07:31.013Z,62.60
2022-12-18T02:10:31.516Z,62.27
2022-12-18T02:13:13.685Z,62.04
2022-12-18T02:16:12.695Z,61.95
2022-12-18T02:18:45.174Z,62.48
2022-12-18T02:21:42.331Z,62.97
2022-12-18T02:24:26.350Z,62.62
2022-12-18T02:26:58.550Z,62.94
2022-12-18T02:29:29.916Z,62.78
2022-12-18T02:32:00.438Z,62.88
2022-12-18T02:34:38.937Z,62.94
2022-12-18T02:37:13.258Z,62.76
2022-12-18T02:39:43.113Z,62.50
2022-12-18T02:42:10.748Z,62.66
2022-12-18T02:44:47.983Z,62.68
2022-12-18T02:47:16.477Z,62.73
2022-12-18T02:50:24.087Z,62.52
2022-12-18T02:53:09.530Z,62.91
2022-12-18T02:56:16.627Z,63.09
2022-12-18T02:59:06.916Z,62.53
2022-12-18T03:01:39.534Z,62.53
2022-12-18T03:04:13.755Z,62.40
2022-12-18T03:06:44.562Z,62.44
2022-12-18T03:09:18.867Z,62.11
2022-12-18T03:12:11.596Z,62.72
2022-12-18T03:14:39.444Z,62.63
2022-12-18T03:17:11.745Z,62.48
2022-12-18T03:19:40.227Z,62.27
2022-12-18T03:22:08.584Z,62.35
2022-12-18T03:24:39.954Z,62.47
2022-12-18T03:27:14.903Z,62.35
2022-12-18T03:29:57.876Z,62.57
2022-12-18T03:32:32.260Z,62.56
2022-12-18T03:35:04.155Z,62.51
2022-12-18T03:37:32.504Z,62.81
2022-12-18T03:39:59.182Z,62.73
2022-12-18T03:42:38.110Z,62.75
2022-12-18T03:45:14.639Z,62.79
2022-12-18T03:47:54.584Z,62.42
2022-12-18T03:50:25.403Z,62.87
2022-12-18T03:53:01.059Z,62.76
2022-12-18T03:55:30.515Z,62.81
2022-12-18T03:57:58.427Z,63.05
2022-12-18T04:00:24.968Z,62.58
2022-12-18T04:02:55.099Z,62.35
2022-12-18T04:05:23.572Z,62.54
2022-12-18T04:07:52.989Z,62.94
2022-12-18T04:10:19.887Z,62.90
2022-12-18T04:12:46.305Z,62.47
2022-12-18T04:15:14.120Z,62.41
2022-12-18T04:17:48.025Z,62.48
2022-12-18T04:20:14.684Z,62.69
2022-12-18T04:22:41.158Z,62.63
2022-12-18T04:25:08.089Z,62.99
2022-12-18T04:27:35.080Z,62.94
2022-12-18T04:30:02.017Z,63.46
2022-12-18T04:32:28.473Z,63.35
2022-12-18T04:34:55.019Z,63.53
2022-12-18T04:37:21.677Z,63.78
2022-12-18T04:39:48.296Z,64.41
2022-12-18T04:42:14.783Z,65.01
2022-12-18T04:44:41.381Z,64.91
2022-12-18T04:47:08.536Z,65.59
2022-12-18T04:49:34.969Z,65.51
2022-12-18T04:52:01.540Z,66.48
2022-12-18T04:54:27.957Z,66.39
2022-12-18T04:56:54.464Z,66.08
2022-12-18T04:59:21.801Z,65.35
2022-12-18T05:01:48.652Z,65.06
2022-12-18T05:04:15.306Z,64.65
2022-12-18T05:06:41.947Z,64.95
2022-12-18T05:09:08.464Z,64.36
2022-12-18T05:11:36.324Z,64.44
2022-12-18T05:14:02.872Z,64.59
2022-12-18T05:16:29.529Z,64.16
2022-12-18T05:18:56.088Z,63.58
2022-12-18T05:21:22.521Z,63.80
2022-12-18T05:23:48.967Z,63.57
2022-12-18T05:26:18.458Z,63.82
2022-12-18T05:28:45.474Z,63.10
2022-12-18T05:31:12.331Z,63.05
2022-12-18T05:33:39.518Z,63.08
2022-12-18T05:36:08.795Z,62.74
2022-12-18T05:38:37.722Z,63.23
2022-12-18T05:41:05.524Z,63.59
2022-12-18T05:43:32.572Z,63.03
2022-12-18T05:45:59.130Z,63.14
2022-12-18T05:48:25.967Z,63.34
2022-12-18T05:50:52.461Z,62.94
2022-12-18T05:53:21.551Z,62.76
2022-12-18T05:55:48.540Z,62.89
2022-12-18T05:58:15.617Z,62.48
2022-12-18T06:00:46.716Z,62.96
2022-12-18T06:03:14.904Z,62.85
2022-12-18T06:05:44.694Z,62.96
2022-12-18T06:08:12.611Z,62.65
2022-12-18T06:10:39.599Z,62.81
2022-12-18T06:13:07.005Z,63.07
2022-12-18T06:15:33.971Z,63.02
2022-12-18T06:18:02.119Z,63.70
2022-12-18T06:20:33.248Z,63.31
2022-12-18T06:23:00.304Z,64.10
2022-12-18T06:25:27.296Z,64.68
2022-12-18T06:27:53.832Z,64.36
2022-12-18T06:30:20.292Z,64.27
2022-12-18T06:32:50.494Z,64.12
2022-12-18T06:35:19.532Z,64.29
2022-12-18T06:37:47.624Z,64.17
2022-12-18T06:40:14.136Z,64.10
2022-12-18T06:42:40.739Z,64.21
2022-12-18T06:45:07.688Z,65.12
2022-12-18T06:47:34.193Z,65.75
2022-12-18T06:50:00.664Z,65.85
2022-12-18T06:52:27.096Z,66.81
2022-12-18T06:54:53.748Z,65.57
2022-12-18T06:57:20.234Z,66.00
2022-12-18T06:59:46.741Z,65.95
2022-12-18T07:02:13.943Z,65.04
2022-12-18T07:04:40.994Z,64.70
2022-12-18T07:07:07.523Z,64.02
2022-12-18T07:09:34.117Z,63.38
2022-12-18T07:12:00.585Z,63.12
2022-12-18T07:14:27.048Z,63.27
2022-12-18T07:16:53.737Z,63.14
2022-12-18T07:19:20.419Z,63.81
2022-12-18T07:21:47.085Z,63.07
2022-12-18T07:24:13.549Z,63.63
2022-12-18T07:26:39.984Z,65.44
2022-12-18T07:29:06.453Z,65.14
2022-12-18T07:31:32.961Z,64.55
2022-12-18T07:33:59.547Z,64.41
2022-12-18T07:36:26.413Z,64.73
2022-12-18T07:38:56.159Z,66.33
2022-12-18T07:41:22.749Z,65.69
2022-12-18T07:43:49.731Z,65.27
2022-12-18T07:46:17.732Z,64.26
2022-12-18T07:48:45.217Z,63.98
2022-12-18T07:51:16.385Z,64.11
2022-12-18T07:53:43.593Z,63.29
2022-12-18T07:56:29.091Z,62.68
2022-12-18T07:58:58.593Z,62.29
2022-12-18T08:01:25.537Z,61.82
2022-12-18T08:03:52.726Z,61.70
2022-12-18T08:06:23.245Z,62.06
2022-12-18T08:08:56.042Z,61.59
2022-12-18T08:11:24.399Z,61.15
2022-12-18T08:13:51.047Z,60.75
2022-12-18T08:16:18.504Z,60.81
2022-12-18T08:18:45.779Z,61.51
2022-12-18T08:21:14.811Z,60.00
2022-12-18T08:23:43.353Z,60.29
2022-12-18T08:26:11.402Z,58.70
2022-12-18T08:28:38.080Z,59.05
2022-12-18T08:31:04.993Z,59.79
2022-12-18T08:33:32.049Z,58.84
2022-12-18T08:36:00.022Z,54.73
2022-12-18T08:38:26.486Z,56.93
2022-12-18T08:41:19.510Z,56.64
2022-12-18T08:44:04.511Z,55.52
2022-12-18T08:46:42.240Z,55.42
2022-12-18T08:49:09.784Z,54.88
2022-12-18T08:51:36.863Z,54.29
2022-12-18T08:54:03.938Z,54.38
2022-12-18T08:56:33.016Z,52.28
2022-12-18T08:58:59.693Z,51.75
2022-12-18T09:01:26.407Z,49.68
2022-12-18T09:03:53.199Z,51.07
2022-12-18T09:06:21.716Z,49.45
2022-12-18T09:08:48.429Z,51.05
2022-12-18T09:11:24.481Z,51.47
2022-12-18T09:13:51.387Z,51.47
2022-12-18T09:16:18.281Z,53.01
2022-12-18T09:18:44.819Z,52.92
2022-12-18T09:21:19.751Z,51.67
2022-12-18T09:23:56.715Z,52.86
2022-12-18T09:26:24.406Z,50.92
2022-12-18T09:28:51.924Z,53.84
2022-12-18T09:31:20.535Z,53.30
2022-12-18T09:33:47.321Z,53.45
2022-12-18T09:36:16.709Z,53.14
2022-12-18T09:38:43.529Z,53.27
2022-12-18T09:41:19.284Z,54.87
2022-12-18T09:43:51.151Z,55.71
2022-12-18T09:46:26.487Z,55.09
2022-12-18T09:48:55.718Z,55.06
2022-12-18T09:51:37.572Z,53.82
2022-12-18T09:54:39.358Z,54.51
2022-12-18T09:57:06.530Z,54.48
2022-12-18T09:59:37.599Z,55.21
2022-12-18T10:02:33.806Z,55.27
2022-12-18T10:05:15.410Z,56.26
2022-12-18T10:07:51.070Z,56.33
2022-12-18T10:10:22.416Z,56.15
2022-12-18T10:13:24.118Z,56.47
2022-12-18T10:16:14.306Z,55.34
2022-12-18T10:19:21.168Z,56.23
2022-12-18T10:22:06.441Z,56.67
2022-12-18T10:24:44.550Z,57.23
2022-12-18T10:27:25.110Z,56.55
2022-12-18T10:29:51.876Z,57.07
2022-12-18T10:32:21.643Z,57.07
2022-12-18T10:34:49.574Z,57.37
2022-12-18T10:37:21.735Z,56.97
2022-12-18T10:40:08.121Z,57.43
2022-12-18T10:42:34.734Z,56.39
2022-12-18T10:45:16.977Z,57.26
2022-12-18T10:47:47.432Z,57.49
2022-12-18T10:50:40.723Z,57.47
2022-12-18T10:53:20.963Z,57.00
2022-12-18T10:55:48.348Z,58.28
2022-12-18T10:58:38.111Z,57.71
2022-12-18T11:01:12.244Z,57.41
2022-12-18T11:03:42.899Z,56.97
2022-12-18T11:06:12.075Z,55.92
2022-12-18T11:08:39.820Z,55.33
2022-12-18T11:11:17.342Z,55.17
2022-12-18T11:14:06.329Z,54.87
2022-12-18T11:16:57.929Z,55.60
2022-12-18T11:19:34.931Z,56.29
2022-12-18T11:22:04.516Z,57.27
2022-12-18T11:24:36.383Z,57.08
2022-12-18T11:27:05.616Z,57.37
2022-12-18T11:29:46.249Z,57.60
2022-12-18T11:32:16.160Z,57.74
2022-12-18T11:34:47.428Z,56.91
2022-12-18T11:37:16.724Z,57.65
2022-12-18T11:39:53.986Z,57.82
2022-12-18T11:42:37.011Z,58.67
2022-12-18T11:45:13.902Z,57.77
2022-12-18T11:47:50.008Z,57.65
2022-12-18T11:50:24.968Z,58.23
2022-12-18T11:52:56.721Z,58.49
2022-12-18T11:55:40.824Z,59.85
2022-12-18T11:58:42.884Z,59.68
2022-12-18T12:01:24.423Z,60.37
2022-12-18T12:04:15.569Z,60.29
2022-12-18T12:07:04.833Z,58.60
2022-12-18T12:09:49.624Z,58.38
2022-12-18T12:12:49.124Z,58.59
2022-12-18T12:15:33.265Z,58.69
2022-12-18T12:18:19.489Z,59.89
2022-12-18T12:21:11.096Z,60.00
2022-12-18T12:23:43.609Z,59.45
2022-12-18T12:26:22.060Z,56.28
2022-12-18T12:28:54.540Z,56.76
2022-12-18T12:31:24.039Z,56.78
2022-12-18T12:34:15.531Z,56.28
2022-12-18T12:37:20.302Z,57.80
2022-12-18T12:39:48.567Z,57.99
2022-12-18T12:42:43.647Z,57.67
2022-12-18T12:45:19.533Z,58.21
2022-12-18T12:47:49.433Z,57.63
2022-12-18T12:50:21.212Z,56.93
2022-12-18T12:52:53.546Z,57.21
2022-12-18T12:55:27.568Z,57.26
2022-12-18T12:58:06.323Z,57.38
2022-12-18T13:00:45.184Z,57.36
2022-12-18T13:03:42.426Z,56.76
2022-12-18T13:06:36.930Z,57.32
2022-12-18T13:09:06.189Z,57.42
2022-12-18T13:12:00.428Z,57.83
2022-12-18T13:14:36.659Z,57.93
2022-12-18T13:17:21.193Z,57.92
2022-12-18T13:20:08.980Z,57.44
2022-12-18T13:22:39.079Z,57.89
2022-12-18T13:25:35.274Z,57.80
2022-12-18T13:28:12.212Z,58.27
2022-12-18T13:30:41.870Z,57.72
2022-12-18T13:33:15.160Z,57.18
2022-12-18T13:36:03.712Z,57.85
2022-12-18T13:38:32.892Z,57.87
2022-12-18T13:41:01.037Z,57.86
2022-12-18T13:43:59.140Z,58.14
2022-12-18T13:46:42.843Z,58.32
2022-12-18T13:49:15.493Z,58.64
2022-12-18T13:51:50.457Z,58.21
2022-12-18T13:54:42.229Z,58.31
2022-12-18T13:57:31.818Z,58.00
2022-12-18T13:59:59.089Z,58.39
2022-12-18T14:02:28.289Z,58.73
2022-12-18T14:04:56.438Z,59.73
2022-12-18T14:07:26.244Z,60.06
2022-12-18T14:10:06.483Z,60.02
2022-12-18T14:12:57.506Z,60.58
2022-12-18T14:15:27.045Z,60.52
2022-12-18T14:18:00.124Z,61.28
2022-12-18T14:20:29.502Z,61.20
2022-12-18T14:22:57.761Z,61.06
2022-12-18T14:25:27.483Z,60.94
2022-12-18T14:28:08.809Z,61.19
2022-12-18T14:30:41.264Z,61.36
2022-12-18T14:33:19.738Z,61.24
2022-12-18T14:36:06.034Z,61.51
2022-12-18T14:38:37.637Z,62.31
2022-12-18T14:41:11.459Z,62.65
2022-12-18T14:43:41.038Z,61.94
2022-12-18T14:46:34.134Z,61.99
2022-12-18T14:49:04.033Z,62.26
2022-12-18T14:51:33.739Z,62.90
2022-12-18T14:54:08.888Z,62.86
2022-12-18T14:56:37.926Z,63.07
2022-12-18T14:59:07.480Z,62.89
2022-12-18T15:01:40.479Z,62.79
2022-12-18T15:04:28.447Z,63.11
2022-12-18T15:07:14.607Z,64.54
2022-12-18T15:09:45.415Z,64.90
2022-12-18T15:12:29.720Z,65.29
2022-12-18T15:14:56.396Z,64.97
2022-12-18T15:17:24.698Z,64.51
2022-12-18T15:20:02.206Z,64.83
2022-12-18T15:22:48.329Z,65.72
2022-12-18T15:25:37.605Z,65.99
2022-12-18T15:28:05.025Z,66.77
2022-12-18T15:30:32.455Z,66.32
2022-12-18T15:33:25.740Z,66.11
2022-12-18T15:36:04.154Z,66.19
2022-12-18T15:38:31.120Z,66.98
2022-12-18T15:40:57.926Z,67.49
2022-12-18T15:43:37.934Z,66.69
2022-12-18T15:46:13.248Z,67.23
2022-12-18T15:48:45.279Z,67.05
2022-12-18T15:51:17.128Z,66.78
2022-12-18T15:53:44.489Z,66.86
2022-12-18T15:56:34.275Z,67.01
2022-12-18T15:59:02.144Z,66.57
2022-12-18T16:01:31.149Z,66.59
2022-12-18T16:03:57.922Z,66.45
2022-12-18T16:06:24.734Z,66.99
2022-12-18T16:08:51.459Z,68.31
2022-12-18T16:11:38.980Z,67.28
2022-12-18T16:14:15.910Z,66.55
2022-12-18T16:16:42.766Z,66.78
2022-12-18T16:19:09.246Z,67.06
2022-12-18T16:21:36.283Z,66.61
2022-12-18T16:24:03.001Z,67.05
2022-12-18T16:26:29.512Z,66.38
2022-12-18T16:28:55.925Z,66.38
2022-12-18T16:31:22.754Z,65.90
2022-12-18T16:33:49.576Z,65.86
2022-12-18T16:36:16.073Z,65.72
2022-12-18T16:38:42.942Z,65.77
2022-12-18T16:41:32.314Z,65.65
2022-12-18T16:44:02.506Z,65.01
2022-12-18T16:46:29.263Z,65.08
2022-12-18T16:48:58.255Z,65.28
2022-12-18T16:51:24.765Z,65.56
2022-12-18T16:53:51.276Z,65.27
2022-12-18T16:56:17.737Z,65.09
2022-12-18T16:58:44.357Z,65.42
2022-12-18T17:01:12.169Z,64.68
2022-12-18T17:03:40.314Z,64.97
2022-12-18T17:06:07.396Z,64.50
2022-12-18T17:08:33.871Z,64.52
2022-12-18T17:11:09.546Z,65.00
2022-12-18T17:13:36.138Z,64.58
2022-12-18T17:16:07.732Z,65.13
2022-12-18T17:18:35.130Z,64.56
2022-12-18T17:21:03.248Z,64.73
2022-12-18T17:23:30.428Z,64.66
2022-12-18T17:25:58.325Z,64.28
2022-12-18T17:28:26.161Z,64.77
2022-12-18T17:30:53.963Z,64.94
2022-12-18T17:33:21.154Z,64.75
2022-12-18T17:35:47.745Z,65.10
2022-12-18T17:38:15.043Z,64.72
2022-12-18T17:40:46.059Z,64.19
2022-12-18T17:43:13.171Z,64.67
2022-12-18T17:45:40.372Z,64.27
2022-12-18T17:48:08.310Z,64.70
2022-12-18T17:50:35.772Z,64.46
2022-12-18T17:53:02.854Z,64.77
2022-12-18T17:55:29.933Z,64.08
2022-12-18T17:57:56.411Z,64.13
2022-12-18T18:00:23.067Z,65.04
2022-12-18T18:02:49.779Z,64.58
2022-12-18T18:05:16.500Z,64.46
2022-12-18T18:07:42.962Z,64.30
2022-12-18T18:10:09.774Z,63.94
2022-12-18T18:16:22.640Z,64.01
2022-12-18T18:18:49.087Z,64.36
2022-12-18T18:21:15.540Z,64.25
2022-12-18T18:23:42.475Z,64.00
2022-12-18T18:26:11.032Z,64.07
2022-12-18T18:28:37.470Z,64.22
2022-12-18T18:31:06.147Z,64.09
2022-12-18T18:33:33.643Z,64.04
2022-12-18T18:36:00.355Z,63.86
2022-12-18T18:38:29.135Z,63.94
2022-12-18T18:41:02.838Z,64.60
2022-12-18T18:43:30.379Z,64.41
2022-12-18T18:46:01.245Z,64.30
2022-12-18T18:48:30.966Z,64.39
2022-12-18T18:51:00.799Z,64.63
2022-12-18T18:53:28.437Z,64.58
2022-12-18T18:56:34.536Z,65.20
2022-12-18T18:58:45.704Z,64.86
2022-12-18T19:01:17.501Z,65.13
2022-12-18T19:03:44.930Z,64.91
2022-12-18T19:06:14.896Z,64.76
2022-12-18T19:08:42.054Z,64.32
2022-12-18T19:11:31.807Z,64.76
2022-12-18T19:14:08.044Z,64.75
2022-12-18T19:16:35.493Z,64.09
2022-12-18T19:19:03.514Z,65.06
2022-12-18T19:21:31.406Z,64.82
2022-12-18T19:24:00.809Z,64.71
2022-12-18T19:26:28.506Z,65.23
2022-12-18T19:29:01.532Z,64.73
2022-12-18T19:31:33.362Z,64.70
2022-12-18T19:34:02.333Z,64.75
2022-12-18T19:36:30.909Z,64.90
2022-12-18T19:39:00.347Z,64.91
2022-12-18T19:41:31.295Z,64.88
2022-12-18T19:44:07.345Z,65.02
2022-12-18T19:46:36.054Z,64.54
2022-12-18T19:49:03.976Z,64.90
2022-12-18T19:51:32.049Z,64.46
2022-12-18T19:54:01.388Z,64.41
2022-12-18T19:56:31.007Z,65.01
2022-12-18T19:58:58.307Z,65.32
2022-12-18T20:01:25.784Z,64.99
2022-12-18T20:03:53.744Z,64.74
2022-12-18T20:06:34.267Z,65.13
2022-12-18T20:09:04.786Z,65.43
2022-12-18T20:11:33.357Z,65.73
2022-12-18T20:14:04.411Z,66.94
2022-12-18T20:16:33.087Z,67.08
2022-12-18T20:19:00.246Z,66.60
2022-12-18T20:21:26.967Z,66.08
2022-12-18T20:23:54.824Z,65.79
2022-12-18T20:26:22.403Z,65.39
2022-12-18T20:28:48.877Z,65.74
2022-12-18T20:31:15.490Z,65.85
2022-12-18T20:33:42.717Z,65.52
2022-12-18T20:36:15.380Z,66.70
2022-12-18T20:38:43.444Z,66.82
2022-12-18T20:41:16.350Z,67.43
2022-12-18T20:43:44.113Z,67.70
2022-12-18T20:46:13.169Z,68.71
2022-12-18T20:48:40.863Z,68.42
2022-12-18T20:51:13.297Z,68.18
2022-12-18T20:53:41.809Z,68.18
2022-12-18T20:56:21.517Z,67.30
2022-12-18T20:58:49.497Z,67.31
2022-12-18T21:01:21.626Z,66.45
2022-12-18T21:03:48.988Z,65.78
2022-12-18T21:06:17.941Z,66.24
2022-12-18T21:08:44.832Z,67.02
2022-12-18T21:11:39.213Z,66.06
2022-12-18T21:14:10.053Z,65.41
2022-12-18T21:16:36.807Z,66.02
2022-12-18T21:19:04.684Z,65.67
2022-12-18T21:21:37.224Z,65.25
2022-12-18T21:24:06.136Z,66.17
2022-12-18T21:26:32.711Z,65.37
2022-12-18T21:29:01.647Z,65.21
2022-12-18T21:31:36.454Z,64.64
2022-12-18T21:34:03.909Z,64.86
2022-12-18T21:36:31.795Z,65.31
2022-12-18T21:38:59.134Z,65.33
2022-12-18T21:41:44.879Z,65.09
2022-12-18T21:44:14.541Z,65.49
2022-12-18T21:46:44.036Z,64.65
2022-12-18T21:49:11.990Z,65.04
2022-12-18T21:51:39.433Z,64.45
2022-12-18T21:54:06.062Z,64.38
2022-12-18T21:56:52.283Z,64.97
2022-12-18T21:59:20.217Z,64.11
2022-12-18T22:01:48.137Z,64.41
2022-12-18T22:04:16.154Z,64.12
2022-12-18T22:06:43.334Z,64.05
2022-12-18T22:09:12.488Z,63.93
2022-12-18T22:11:39.560Z,64.56
2022-12-18T22:14:06.637Z,64.23
2022-12-18T22:16:33.530Z,64.42
2022-12-18T22:19:01.936Z,64.21
2022-12-18T22:21:31.249Z,64.24
2022-12-18T22:24:03.635Z,64.63
2022-12-18T22:26:36.499Z,65.27
2022-12-18T22:29:25.322Z,64.91
2022-12-18T22:31:52.471Z,64.90
2022-12-18T22:34:22.812Z,64.91
2022-12-18T22:36:49.763Z,65.49
2022-12-18T22:39:24.514Z,65.47
2022-12-18T22:41:51.837Z,65.37
2022-12-18T22:44:18.840Z,65.14
2022-12-18T22:47:05.646Z,65.08
2022-12-18T22:49:33.895Z,65.41
2022-12-18T22:52:01.545Z,65.79
2022-12-18T22:54:28.168Z,66.65
2022-12-18T22:56:55.500Z,65.94
2022-12-18T22:59:23.358Z,65.52
2022-12-18T23:01:51.442Z,65.56
2022-12-18T23:04:28.469Z,65.60
2022-12-18T23:07:02.676Z,65.96
2022-12-18T23:09:29.286Z,65.94
2022-12-18T23:11:55.796Z,66.53
2022-12-18T23:14:22.322Z,66.30
2022-12-18T23:16:49.240Z,65.47
2022-12-18T23:19:17.912Z,65.23
2022-12-18T23:21:44.378Z,65.08
2022-12-18T23:24:10.959Z,65.02
2022-12-18T23:26:37.625Z,64.98
2022-12-18T23:29:04.665Z,64.69
2022-12-18T23:31:36.331Z,65.09
2022-12-18T23:34:05.058Z,64.92
2022-12-18T23:36:35.257Z,65.15
2022-12-18T23:39:15.415Z,65.03
2022-12-18T23:41:55.929Z,64.47
2022-12-18T23:44:22.391Z,64.09
2022-12-18T23:46:48.933Z,64.54
2022-12-18T23:49:15.456Z,64.42
2022-12-18T23:51:42.169Z,65.25
2022-12-18T23:54:09.991Z,65.15
2022-12-18T23:56:36.478Z,65.32
2022-12-18T23:59:02.927Z,66.22
